Time;durP1;ratioP1;P1;durP2;ratioP2;P2;SDS_P1;SDS_P2;PMS_P1;PMS_P2;Temp;Humidity;BMP_temperature;BMP_pressure;BME280_temperature;BME280_humidity;BME280_pressure;Samples;Min_cycle;Max_cycle;Signal;HPM_P1;HPM_P2
2023/02/15 00:01:37;;;;;;;53.38;27.20;;;;;;;-143.48;88.95;118439.88;5052865;28;20457;-28
2023/02/15 00:04:03;;;;;;;52.95;26.85;;;;;;;-143.48;88.64;118439.88;5053028;28;20021;-28
2023/02/15 00:06:29;;;;;;;52.72;27.95;;;;;;;-143.48;88.55;118439.88;5052808;28;20052;-28
2023/02/15 00:08:55;;;;;;;53.00;28.13;;;;;;;-143.48;88.58;118439.88;5053069;28;20029;-29
2023/02/15 00:11:39;;;;;;;53.70;28.88;;;;;;;-143.48;89.00;118439.88;5053011;28;20064;-28
2023/02/15 00:14:06;;;;;;;54.47;27.75;;;;;;;-143.48;88.51;118439.88;5053041;28;20099;-28
2023/02/15 00:16:32;;;;;;;54.78;27.42;;;;;;;-143.48;88.47;118439.88;5051585;28;20021;-28
2023/02/15 00:19:01;;;;;;;54.55;28.33;;;;;;;-143.48;88.20;118439.88;5052669;28;20056;-28
2023/02/15 00:21:26;;;;;;;52.42;26.95;;;;;;;-143.48;88.27;118439.88;5055415;28;20456;-28
2023/02/15 00:23:52;;;;;;;53.90;27.70;;;;;;;-143.48;88.15;118439.88;5056867;28;20108;-28
2023/02/15 00:26:17;;;;;;;58.10;29.38;;;;;;;-143.48;88.38;118439.88;5056297;28;20151;-28
2023/02/15 00:28:42;;;;;;;54.25;27.35;;;;;;;-143.48;88.25;118439.88;5056729;28;20024;-28
2023/02/15 00:31:10;;;;;;;51.20;27.05;;;;;;;-143.48;87.91;118439.88;5056465;28;20052;-28
2023/02/15 00:33:37;;;;;;;53.40;26.40;;;;;;;-143.48;87.70;118439.88;5056152;28;20063;-28
2023/02/15 00:36:04;;;;;;;43.50;25.10;;;;;;;-143.48;88.14;118439.88;5056112;28;20032;-28
2023/02/15 00:38:30;;;;;;;45.55;25.15;;;;;;;-143.48;87.58;118439.88;5056371;28;20391;-28
2023/02/15 00:40:58;;;;;;;46.10;24.67;;;;;;;-143.48;87.34;118439.88;5056258;28;20574;-28
2023/02/15 00:43:24;;;;;;;49.30;24.60;;;;;;;-143.48;87.07;118439.88;5056182;28;20104;-29
2023/02/15 00:45:50;;;;;;;49.35;25.83;;;;;;;-143.48;87.10;118439.88;5055899;28;20032;-28
2023/02/15 00:48:15;;;;;;;46.80;24.95;;;;;;;-143.48;87.12;118439.88;5055837;28;20024;-29
2023/02/15 00:50:41;;;;;;;46.05;25.88;;;;;;;-143.48;87.28;118439.88;5056029;28;20096;-28
2023/02/15 00:53:06;;;;;;;50.25;25.02;;;;;;;-143.48;87.20;118439.88;5055808;28;20017;-28
2023/02/15 00:55:31;;;;;;;53.53;26.77;;;;;;;-143.48;87.63;118439.88;5056033;28;20020;-28
2023/02/15 00:57:57;;;;;;;56.65;28.45;;;;;;;-143.48;87.72;118439.88;5054432;28;20103;-28
2023/02/15 01:00:22;;;;;;;55.30;28.27;;;;;;;-143.48;88.51;118439.88;5055932;28;20060;-28
2023/02/15 01:02:47;;;;;;;47.25;26.08;;;;;;;-143.48;87.48;118439.88;5055440;28;20364;-29
2023/02/15 01:05:13;;;;;;;52.40;27.00;;;;;;;-143.48;88.22;118439.88;5055561;28;20452;-28
2023/02/15 01:07:38;;;;;;;52.55;27.92;;;;;;;-143.48;88.30;118439.88;5055850;28;20025;-28
2023/02/15 01:10:06;;;;;;;56.47;26.88;;;;;;;-143.48;88.67;118439.88;5055770;28;20032;-28
2023/02/15 01:12:31;;;;;;;50.20;26.23;;;;;;;-143.48;88.47;118439.88;5055268;28;20024;-28
2023/02/15 01:14:56;;;;;;;48.95;26.98;;;;;;;-143.48;88.31;118439.88;5055645;28;20017;-28
2023/02/15 01:17:22;;;;;;;54.95;26.80;;;;;;;-143.48;88.20;118439.88;5055328;28;20043;-28
2023/02/15 01:19:47;;;;;;;54.70;27.08;;;;;;;-143.48;88.14;118439.88;5055146;28;20081;-29
2023/02/15 01:22:12;;;;;;;60.08;26.23;;;;;;;-143.48;88.14;118439.88;5055851;28;20044;-28
2023/02/15 01:24:38;;;;;;;56.35;28.38;;;;;;;-143.48;88.46;118439.88;5055368;28;20025;-29
2023/02/15 01:27:03;;;;;;;62.38;29.63;;;;;;;-143.48;89.29;118439.88;5055457;28;20032;-28
2023/02/15 01:29:28;;;;;;;59.55;30.38;;;;;;;-143.48;89.70;118439.88;5055658;28;20464;-28
2023/02/15 01:31:53;;;;;;;67.10;31.05;;;;;;;-143.48;89.32;118439.88;5054813;28;20044;-28
2023/02/15 01:34:19;;;;;;;60.30;31.13;;;;;;;-143.48;90.69;118439.88;5054622;28;20100;-28
2023/02/15 01:36:44;;;;;;;60.10;30.50;;;;;;;-143.48;91.13;118439.88;5055206;28;20033;-29
2023/02/15 01:39:10;;;;;;;61.08;30.35;;;;;;;-143.48;91.49;118439.88;5054473;28;20418;-28
2023/02/15 01:41:35;;;;;;;60.88;30.00;;;;;;;-143.48;90.97;118439.88;5055111;28;20028;-28
2023/02/15 01:44:02;;;;;;;57.97;29.55;;;;;;;-143.48;90.66;118439.88;5054783;28;20405;-28
2023/02/15 01:46:27;;;;;;;58.03;30.13;;;;;;;-143.48;90.62;118439.88;5054683;28;20063;-28
2023/02/15 01:49:20;;;;;;;55.25;29.88;;;;;;;-143.48;90.77;118439.88;5054711;28;20083;-29
2023/02/15 01:51:48;;;;;;;59.63;29.70;;;;;;;-143.48;90.79;118439.88;5054395;28;20072;-28
2023/02/15 01:54:27;;;;;;;58.47;30.20;;;;;;;-143.48;90.49;118439.88;5054626;28;20021;-28
2023/02/15 01:56:57;;;;;;;57.13;29.48;;;;;;;-143.48;91.39;118439.88;5055059;28;20040;-28
2023/02/15 01:59:24;;;;;;;57.45;31.00;;;;;;;-143.48;91.85;118439.88;5055078;28;20024;-28
2023/02/15 02:01:54;;;;;;;58.72;30.10;;;;;;;-143.48;91.85;118439.88;5054531;28;20178;-28
2023/02/15 02:04:31;;;;;;;62.40;31.75;;;;;;;-143.48;91.35;118439.88;5054555;28;20472;-28
2023/02/15 02:06:57;;;;;;;59.03;30.63;;;;;;;-143.48;91.82;118439.88;5054619;28;20032;-28
2023/02/15 02:09:23;;;;;;;58.30;31.25;;;;;;;-143.48;90.94;118439.88;5054899;28;20027;-28
2023/02/15 02:11:49;;;;;;;57.15;30.63;;;;;;;-143.48;90.77;118439.88;5054331;28;20483;-28
2023/02/15 02:14:16;;;;;;;62.70;31.52;;;;;;;-143.48;90.71;118439.88;5054335;28;20519;-29
2023/02/15 02:16:50;;;;;;;59.47;30.48;;;;;;;-143.48;90.87;118439.88;5054472;28;20035;-29
2023/02/15 02:20:03;;;;;;;61.05;30.27;;;;;;;-143.48;89.83;118439.88;5054131;28;20044;-28
2023/02/15 02:23:06;;;;;;;65.70;30.95;;;;;;;-143.48;90.26;118439.88;5032393;28;20095;-28
2023/02/15 02:26:00;;;;;;;66.95;30.92;;;;;;;-143.48;90.57;118439.88;5054075;28;20044;-28
2023/02/15 02:28:48;;;;;;;;;;;;;;;-143.48;89.63;118439.88;5054689;28;20376;-28
2023/02/15 02:31:35;;;;;;;61.95;30.60;;;;;;;-143.48;88.99;118439.88;5054000;28;20416;-28
2023/02/15 02:34:15;;;;;;;60.92;29.45;;;;;;;-143.48;89.40;118439.88;5053923;28;20041;-28
2023/02/15 02:37:03;;;;;;;62.60;29.33;;;;;;;-143.48;89.52;118439.88;5054200;28;20024;-28
2023/02/15 02:39:50;;;;;;;60.67;31.20;;;;;;;-143.48;90.54;118439.88;5053810;28;20029;-28
2023/02/15 02:42:50;;;;;;;58.45;30.98;;;;;;;-143.48;90.48;118439.88;5053783;28;20052;-29
2023/02/15 02:45:25;;;;;;;61.58;30.95;;;;;;;-143.48;90.04;118439.88;5050303;28;20049;-29
2023/02/15 02:48:03;;;;;;;54.20;28.77;;;;;;;-143.48;89.07;118439.88;5054007;28;20032;-28
2023/02/15 02:50:30;;;;;;;63.75;29.88;;;;;;;-143.48;89.19;118439.88;5053863;28;20032;-28
2023/02/15 02:52:57;;;;;;;54.20;29.63;;;;;;;-143.48;89.08;118439.88;5052597;28;20025;-29
2023/02/15 02:55:38;;;;;;;55.50;29.73;;;;;;;-143.48;89.09;118439.88;5053604;28;20035;-29
2023/02/15 02:58:12;;;;;;;56.50;29.10;;;;;;;-143.48;88.84;118439.88;5053590;28;20091;-28
2023/02/15 03:01:01;;;;;;;56.42;28.98;;;;;;;-143.48;88.99;118439.88;5054073;28;20037;-29
2023/02/15 03:03:47;;;;;;;59.15;29.17;;;;;;;-143.48;88.92;118439.88;5053645;28;20068;-28
2023/02/15 03:06:22;;;;;;;56.28;30.17;;;;;;;-143.48;88.73;118439.88;5053706;28;20084;-28
2023/02/15 03:08:53;;;;;;;55.72;28.98;;;;;;;-143.48;88.28;118439.88;5053389;28;20049;-28
2023/02/15 03:11:18;;;;;;;59.15;29.48;;;;;;;-143.48;88.68;118439.88;5053710;28;20070;-28
2023/02/15 03:13:46;;;;;;;61.97;29.20;;;;;;;-143.48;88.61;118439.88;5053636;28;20459;-28
2023/02/15 03:16:25;;;;;;;55.60;27.85;;;;;;;-143.48;89.36;118439.88;5053603;28;20070;-29
2023/02/15 03:18:57;;;;;;;54.38;28.27;;;;;;;-143.48;89.05;118439.88;5053337;28;20077;-28
2023/02/15 03:21:30;;;;;;;55.53;28.15;;;;;;;-143.48;89.44;118439.88;5053548;28;20487;-29
2023/02/15 03:24:04;;;;;;;53.13;26.42;;;;;;;-143.48;89.36;118439.88;5053464;28;20063;-29
2023/02/15 03:26:30;;;;;;;53.20;27.25;;;;;;;-143.48;89.40;118439.88;5051907;28;20074;-29
2023/02/15 03:28:58;;;;;;;59.25;27.08;;;;;;;-143.48;88.76;118439.88;5053787;28;20024;-28
2023/02/15 03:31:28;;;;;;;56.60;28.17;;;;;;;-143.48;88.95;118439.88;5053131;28;20029;-29
2023/02/15 03:33:59;;;;;;;55.63;28.27;;;;;;;-143.48;89.32;118439.88;5053460;28;20380;-28
2023/02/15 03:36:56;;;;;;;51.83;27.13;;;;;;;-143.48;88.82;118439.88;5053146;28;20025;-28
2023/02/15 03:39:24;;;;;;;57.70;27.67;;;;;;;-143.48;88.90;118439.88;5053421;28;20021;-29
2023/02/15 03:42:01;;;;;;;55.42;27.58;;;;;;;-143.48;88.88;118439.88;5053128;28;20029;-28
2023/02/15 03:44:30;;;;;;;53.88;26.92;;;;;;;-143.48;89.39;118439.88;5053316;28;20456;-28
2023/02/15 03:47:03;;;;;;;51.90;26.85;;;;;;;-143.48;89.09;118439.88;5053204;28;20072;-28
2023/02/15 03:49:58;;;;;;;55.70;27.20;;;;;;;-143.48;88.73;118439.88;5053567;28;20032;-29
2023/02/15 03:52:27;;;;;;;53.97;27.88;;;;;;;-143.48;89.03;118439.88;5053510;28;20068;-28
2023/02/15 03:54:52;;;;;;;51.83;27.02;;;;;;;-143.48;88.64;118439.88;5052944;28;20376;-28
2023/02/15 04:03:17;;;;;;;52.65;26.02;;;;;;;-143.48;89.28;118439.88;5057548;28;20035;-29
2023/02/15 04:05:44;;;;;;;50.38;25.35;;;;;;;-143.48;89.26;118439.88;5056994;28;20365;-28
2023/02/15 04:08:10;;;;;;;56.45;26.73;;;;;;;-143.48;89.91;118439.88;5056929;28;20048;-28
2023/02/15 04:10:55;;;;;;;51.42;25.45;;;;;;;-143.48;89.86;118439.88;5056623;28;20029;-28
2023/02/15 04:13:31;;;;;;;50.03;25.90;;;;;;;-143.48;90.86;118439.88;5056887;28;20021;-28
2023/02/15 04:16:05;;;;;;;48.15;26.38;;;;;;;-143.48;91.10;118439.88;5056576;28;20454;-28
2023/02/15 04:26:53;;;;;;;53.45;25.88;;;;;;;-143.48;89.14;118439.88;5057182;28;20040;-28
2023/02/15 04:29:23;;;;;;;49.65;25.20;;;;;;;-143.48;89.21;118439.88;5056518;28;20025;-28
2023/02/15 04:31:50;;;;;;;49.53;26.13;;;;;;;-143.48;89.49;118439.88;5056508;28;20096;-28
2023/02/15 04:34:15;;;;;;;53.50;26.23;;;;;;;-143.48;89.57;118439.88;5056209;28;20391;-28
2023/02/15 04:36:41;;;;;;;55.75;26.00;;;;;;;-143.48;89.60;118439.88;5056422;28;20044;-29
2023/02/15 04:39:07;;;;;;;48.65;25.80;;;;;;;-143.48;89.99;118439.88;5056347;28;20040;-28
2023/02/15 04:41:33;;;;;;;54.25;26.13;;;;;;;-143.48;90.64;118439.88;5055997;28;20471;-28
2023/02/15 04:44:00;;;;;;;52.53;26.25;;;;;;;-143.48;90.77;118439.88;5055905;28;20071;-28
2023/02/15 04:46:26;;;;;;;51.47;25.88;;;;;;;-143.48;90.16;118439.88;5055982;28;20107;-28
2023/02/15 04:48:51;;;;;;;49.53;26.08;;;;;;;-143.48;90.39;118439.88;5056234;28;20112;-28
2023/02/15 04:51:16;;;;;;;55.42;25.75;;;;;;;-143.48;90.19;118439.88;5056416;28;20421;-28
2023/02/15 04:53:42;;;;;;;52.05;26.55;;;;;;;-143.48;90.30;118439.88;5055752;28;20495;-28
2023/02/15 04:56:07;;;;;;;53.67;25.25;;;;;;;-143.48;89.65;118439.88;5056086;28;20036;-28
2023/02/15 04:58:32;;;;;;;57.50;26.70;;;;;;;-143.48;89.59;118439.88;5056339;28;20021;-29
2023/02/15 05:00:58;;;;;;;53.92;25.63;;;;;;;-143.48;90.02;118439.88;5055945;28;20035;-28
2023/02/15 05:03:24;;;;;;;58.20;26.25;;;;;;;-143.48;89.60;118439.88;5055730;28;20419;-28
2023/02/15 05:05:50;;;;;;;45.83;23.40;;;;;;;-143.48;89.86;118439.88;5055561;28;20036;-28
2023/02/15 05:08:16;;;;;;;48.10;24.45;;;;;;;-143.48;89.42;118439.88;5054104;28;20040;-28
2023/02/15 05:10:41;;;;;;;49.67;25.27;;;;;;;-143.48;90.04;118439.88;5055569;28;20057;-28
2023/02/15 05:13:06;;;;;;;50.13;25.42;;;;;;;-143.48;89.06;118439.88;5055402;28;20032;-28
2023/02/15 05:15:32;;;;;;;44.38;24.55;;;;;;;-143.48;89.45;118439.88;5055411;28;20476;-28
2023/02/15 05:17:57;;;;;;;48.83;24.60;;;;;;;-143.48;89.03;118439.88;5055657;28;20024;-28
2023/02/15 05:20:22;;;;;;;51.50;24.52;;;;;;;-143.48;89.14;118439.88;5055132;28;20411;-28
2023/02/15 05:22:48;;;;;;;50.03;25.67;;;;;;;-143.48;89.11;118439.88;5055266;28;20028;-29
2023/02/15 05:28:19;;;;;;;49.05;24.02;;;;;;;-143.48;88.73;118439.88;5033223;28;20025;-28
2023/02/15 05:30:46;;;;;;;48.75;23.75;;;;;;;-143.48;88.73;118439.88;5051630;28;20040;-28
2023/02/15 05:33:11;;;;;;;45.60;24.15;;;;;;;-143.48;88.79;118439.88;5055402;28;20526;-28
2023/02/15 05:35:37;;;;;;;46.17;24.50;;;;;;;-143.48;89.00;118439.88;5055208;28;20029;-28
2023/02/15 05:38:02;;;;;;;47.35;23.75;;;;;;;-143.48;89.48;118439.88;5055007;28;20029;-29
2023/02/15 05:40:28;;;;;;;45.13;24.10;;;;;;;-143.48;89.09;118439.88;5055189;28;20025;-29
2023/02/15 05:42:53;;;;;;;44.35;23.10;;;;;;;-143.48;89.76;118439.88;5054978;28;20483;-29
2023/02/15 05:45:18;;;;;;;45.38;23.58;;;;;;;-143.48;89.49;118439.88;5055359;28;20032;-28
2023/02/15 05:47:44;;;;;;;45.50;22.85;;;;;;;-143.48;89.36;118439.88;5054706;28;20021;-28
2023/02/15 05:50:11;;;;;;;48.15;23.65;;;;;;;-143.48;88.96;118439.88;5054729;28;20051;-28
2023/02/15 05:52:36;;;;;;;43.92;23.48;;;;;;;-143.48;88.71;118439.88;5054927;28;20032;-28
2023/02/15 05:55:04;;;;;;;43.35;23.30;;;;;;;-143.48;88.50;118439.88;5053517;28;20021;-28
2023/02/15 05:57:29;;;;;;;46.90;24.33;;;;;;;-143.48;89.91;118439.88;5054858;28;20020;-28
2023/02/15 05:59:55;;;;;;;44.13;22.90;;;;;;;-143.48;89.05;118439.88;5055116;28;20033;-28
2023/02/15 06:02:20;;;;;;;43.72;22.63;;;;;;;-143.48;88.77;118439.88;5054782;28;20025;-28
2023/02/15 06:04:45;;;;;;;45.10;22.75;;;;;;;-143.48;90.09;118439.88;5054481;28;20455;-28
2023/02/15 06:07:11;;;;;;;43.45;23.42;;;;;;;-143.48;89.62;118439.88;5054901;28;20017;-28
2023/02/15 06:09:36;;;;;;;41.30;22.73;;;;;;;-143.48;89.26;118439.88;5054323;28;20064;-28
2023/02/15 06:12:02;;;;;;;42.55;22.20;;;;;;;-143.48;89.85;118439.88;5054589;28;20020;-28
2023/02/15 06:14:27;;;;;;;40.85;22.40;;;;;;;-143.48;90.25;118439.88;5054484;28;20064;-29
2023/02/15 06:16:52;;;;;;;46.20;22.67;;;;;;;-143.48;90.02;118439.88;5054459;28;20029;-29
2023/02/15 06:19:18;;;;;;;42.55;21.77;;;;;;;-143.48;90.06;118439.88;5053381;28;20549;-28
2023/02/15 06:21:44;;;;;;;44.58;23.65;;;;;;;-143.48;90.90;118439.88;5054080;28;20017;-28
2023/02/15 06:24:09;;;;;;;43.40;22.83;;;;;;;-143.48;90.13;118439.88;5054330;28;20025;-28
2023/02/15 06:26:34;;;;;;;41.45;22.42;;;;;;;-143.48;90.02;118439.88;5054046;28;20044;-29
2023/02/15 06:29:00;;;;;;;45.55;22.45;;;;;;;-143.48;90.30;118439.88;5054339;28;20460;-28
2023/02/15 06:31:25;;;;;;;41.53;21.80;;;;;;;-143.48;90.79;118439.88;5054157;28;20468;-28
2023/02/15 06:33:51;;;;;;;49.35;22.05;;;;;;;-143.48;90.83;118439.88;5054227;28;20075;-28
2023/02/15 06:36:16;;;;;;;58.33;27.90;;;;;;;-143.48;91.34;118439.88;5054447;28;20048;-28
2023/02/15 06:38:41;;;;;;;49.67;23.52;;;;;;;-143.48;91.49;118439.88;5053873;28;20461;-28
2023/02/15 06:41:07;;;;;;;42.80;21.98;;;;;;;-143.48;90.81;118439.88;5053764;28;20086;-28
2023/02/15 06:43:33;;;;;;;43.85;22.00;;;;;;;-143.48;90.30;118439.88;5053676;28;20025;-28
2023/02/15 06:45:59;;;;;;;40.53;20.85;;;;;;;-143.48;91.23;118439.88;5052426;28;20037;-28
2023/02/15 06:48:24;;;;;;;43.30;21.27;;;;;;;-143.48;91.67;118439.88;5053820;28;20146;-28
2023/02/15 06:50:49;;;;;;;44.03;21.48;;;;;;;-143.48;91.77;118439.88;5053850;28;20048;-28
2023/02/15 06:53:15;;;;;;;43.53;21.42;;;;;;;-143.48;91.69;118439.88;5053483;28;20020;-28
2023/02/15 06:55:40;;;;;;;41.75;20.25;;;;;;;-143.48;91.95;118439.88;5053699;28;20452;-28
2023/02/15 06:58:05;;;;;;;41.28;20.23;;;;;;;-143.48;92.11;118439.88;5053480;28;20114;-28
2023/02/15 07:00:31;;;;;;;44.30;21.85;;;;;;;-143.48;92.26;118439.88;5053821;28;20021;-28
2023/02/15 07:02:58;;;;;;;52.47;21.92;;;;;;;-143.48;92.63;118439.88;5053674;28;20490;-29
2023/02/15 07:05:30;;;;;;;45.35;21.75;;;;;;;-143.48;93.25;118439.88;5053321;28;20083;-28
2023/02/15 07:07:57;;;;;;;43.03;21.35;;;;;;;-143.48;92.63;118439.88;5053737;28;20108;-28
2023/02/15 07:10:22;;;;;;;44.85;22.60;;;;;;;-143.48;92.76;118439.88;5053567;28;20044;-28
2023/02/15 07:12:47;;;;;;;43.33;21.40;;;;;;;-143.48;92.50;118439.88;5053340;28;20060;-28
2023/02/15 07:15:16;;;;;;;44.80;21.55;;;;;;;-143.48;92.22;118439.88;5053796;28;20029;-28
2023/02/15 07:17:42;;;;;;;45.25;21.40;;;;;;;-143.48;91.25;118439.88;5053519;28;20086;-29
2023/02/15 07:20:13;;;;;;;45.95;22.30;;;;;;;-143.48;90.71;118439.88;5051927;28;20053;-28
2023/02/15 07:22:38;;;;;;;47.05;21.50;;;;;;;-143.48;91.52;118439.88;5051122;28;20379;-29
2023/02/15 07:25:06;;;;;;;43.75;21.95;;;;;;;-143.48;90.99;118439.88;5050921;28;20033;-29
2023/02/15 07:27:32;;;;;;;41.33;20.80;;;;;;;-143.48;90.31;118439.88;5050974;28;20357;-28
2023/02/15 07:29:58;;;;;;;41.97;20.48;;;;;;;-143.48;88.18;118439.88;5051355;28;20017;-28
2023/02/15 07:32:23;;;;;;;48.10;21.40;;;;;;;-143.48;85.21;118439.88;5054640;28;20409;-28
2023/02/15 07:34:48;;;;;;;38.47;20.15;;;;;;;-143.48;83.67;118439.88;5055140;28;20159;-29
2023/02/15 07:37:14;;;;;;;44.55;21.42;;;;;;;-143.48;82.15;118439.88;5055538;28;20056;-29
2023/02/15 07:39:39;;;;;;;40.60;20.58;;;;;;;-143.48;81.98;118439.88;5055917;28;20037;-28
2023/02/15 07:42:05;;;;;;;36.33;19.73;;;;;;;-143.48;82.73;118439.88;5057370;28;20017;-28
2023/02/15 07:44:30;;;;;;;39.75;21.15;;;;;;;-143.48;81.72;118439.88;5057006;28;20071;-29
2023/02/15 07:46:56;;;;;;;43.88;21.80;;;;;;;-143.48;81.26;118439.88;5056364;28;20024;-29
2023/02/15 07:49:21;;;;;;;36.75;20.17;;;;;;;-143.48;80.62;118439.88;5056053;28;20410;-29
2023/02/15 07:51:46;;;;;;;40.50;19.98;;;;;;;-143.48;79.31;118439.88;5056832;28;20467;-29
2023/02/15 07:54:12;;;;;;;42.67;20.48;;;;;;;-143.48;81.48;118439.88;5056891;28;20383;-29
2023/02/15 07:56:37;;;;;;;38.75;20.83;;;;;;;-143.48;82.19;118439.88;5057077;28;20021;-29
2023/02/15 07:59:04;;;;;;;41.40;20.88;;;;;;;-143.48;79.40;118439.88;5056986;28;20064;-29
2023/02/15 08:01:35;;;;;;;36.83;21.58;;;;;;;-143.48;79.02;118439.88;5057036;28;20021;-29
2023/02/15 08:04:01;;;;;;;40.25;21.38;;;;;;;-143.48;76.06;118439.88;5056901;28;20107;-29
2023/02/15 08:06:31;;;;;;;36.63;20.80;;;;;;;-143.48;75.84;118439.88;5056586;28;20487;-28
2023/02/15 08:08:56;;;;;;;40.15;21.52;;;;;;;-143.48;75.70;118439.88;5056516;28;20125;-28
2023/02/15 08:11:33;;;;;;;36.67;21.42;;;;;;;-143.48;73.00;118439.88;5057105;28;20017;-28
2023/02/15 08:14:02;;;;;;;36.13;21.65;;;;;;;-143.48;72.03;118439.88;5056835;28;20107;-29
2023/02/15 08:16:29;;;;;;;37.17;21.08;;;;;;;-143.48;71.84;118439.88;5057024;28;20464;-27
2023/02/15 08:18:56;;;;;;;34.92;21.50;;;;;;;-143.48;67.15;118439.88;5056681;28;20076;-27
2023/02/15 08:21:24;;;;;;;34.97;21.70;;;;;;;-143.48;70.25;118439.88;5056314;28;20036;-28
2023/02/15 08:23:50;;;;;;;34.30;21.60;;;;;;;-143.48;66.57;118439.88;5056557;28;20017;-27
2023/02/15 08:26:16;;;;;;;33.95;22.45;;;;;;;-143.48;66.35;118439.88;5056325;28;20575;-27
2023/02/15 08:28:42;;;;;;;37.38;22.10;;;;;;;-143.48;64.13;118439.88;5056500;28;20025;-27
2023/02/15 08:31:09;;;;;;;36.30;22.58;;;;;;;-143.48;61.93;118439.88;5056744;28;20490;-27
2023/02/15 08:33:36;;;;;;;32.72;20.92;;;;;;;-143.48;63.00;118439.88;5056060;28;20029;-27
2023/02/15 08:36:14;;;;;;;34.78;21.75;;;;;;;-143.48;65.37;118439.88;5056356;28;20053;-27
2023/02/15 08:38:40;;;;;;;35.78;21.77;;;;;;;-143.48;67.04;118439.88;5056180;28;20029;-27
2023/02/15 08:41:19;;;;;;;36.20;22.38;;;;;;;-143.48;70.97;118439.88;5056144;28;20511;-27
2023/02/15 08:43:46;;;;;;;41.70;22.40;;;;;;;-143.48;74.62;118439.88;5055609;28;20032;-28
2023/02/15 08:46:13;;;;;;;39.08;23.08;;;;;;;-143.48;74.81;118439.88;5055767;28;20029;-27
2023/02/15 08:48:39;;;;;;;39.13;23.38;;;;;;;-143.48;75.49;118439.88;5056181;28;20020;-27
2023/02/15 08:51:07;;;;;;;39.92;23.15;;;;;;;-143.48;76.96;118439.88;5055840;28;20124;-27
2023/02/15 08:53:32;;;;;;;45.20;22.95;;;;;;;-143.48;77.47;118439.88;5055774;28;20017;-27
2023/02/15 08:55:58;;;;;;;43.13;22.33;;;;;;;-143.48;76.38;118439.88;5055966;28;20111;-27
2023/02/15 08:58:24;;;;;;;44.22;22.13;;;;;;;-143.48;74.77;118439.88;5056069;28;20075;-27
2023/02/15 09:00:49;;;;;;;42.03;22.45;;;;;;;-143.48;74.48;118439.88;5055575;28;20028;-27
2023/02/15 09:03:14;;;;;;;41.53;22.52;;;;;;;-143.48;74.96;118439.88;5056138;28;20117;-27
2023/02/15 09:05:40;;;;;;;39.95;23.48;;;;;;;-143.48;73.32;118439.88;5055724;28;20059;-27
2023/02/15 09:08:05;;;;;;;39.80;23.23;;;;;;;-143.48;70.98;118439.88;5055341;28;20025;-27
2023/02/15 09:10:30;;;;;;;38.90;22.80;;;;;;;-143.48;68.12;118439.88;5055473;28;20056;-27
2023/02/15 09:12:56;;;;;;;37.45;22.08;;;;;;;-143.48;64.60;118439.88;5054194;28;20032;-27
2023/02/15 09:15:21;;;;;;;37.42;22.85;;;;;;;-143.48;59.93;118439.88;5055558;28;20357;-27
2023/02/15 09:17:46;;;;;;;39.47;22.52;;;;;;;-143.48;57.13;118439.88;5055492;28;20036;-27
2023/02/15 09:20:12;;;;;;;38.22;22.58;;;;;;;-143.48;55.82;118439.88;5055128;28;20441;-28
2023/02/15 09:22:37;;;;;;;37.53;22.90;;;;;;;-143.48;55.58;118439.88;5055543;28;20029;-27
2023/02/15 09:25:02;;;;;;;34.83;21.95;;;;;;;-143.48;59.02;118439.88;5055092;28;20029;-28
2023/02/15 09:27:29;;;;;;;38.15;22.75;;;;;;;-143.48;59.62;118439.88;5056166;28;20029;-27
2023/02/15 09:29:54;;;;;;;33.53;22.88;;;;;;;-143.48;58.66;118439.88;5055076;28;20034;-28
2023/02/15 09:32:20;;;;;;;36.80;23.13;;;;;;;-143.48;58.25;118439.88;5055171;28;20020;-27
2023/02/15 09:34:45;;;;;;;38.15;23.10;;;;;;;-143.48;57.62;118439.88;5055224;28;20055;-27
2023/02/15 09:37:10;;;;;;;35.97;23.83;;;;;;;-143.48;58.66;118439.88;5055031;28;20025;-27
2023/02/15 09:39:39;;;;;;;38.60;23.23;;;;;;;-143.48;57.08;118439.88;5055094;28;20025;-28
2023/02/15 09:42:15;;;;;;;39.03;23.52;;;;;;;-143.48;56.79;118439.88;5055002;28;20028;-28
2023/02/15 09:44:52;;;;;;;42.58;23.83;;;;;;;-143.48;54.41;118439.88;5054478;28;20104;-28
2023/02/15 09:47:30;;;;;;;37.60;23.63;;;;;;;-143.48;53.93;118439.88;5054687;28;20025;-27
2023/02/15 09:50:33;;;;;;;38.17;23.65;;;;;;;-143.48;52.34;118439.88;5054720;28;20440;-27
2023/02/15 09:53:34;;;;;;;36.40;22.55;;;;;;;-143.48;49.29;118439.88;5053840;28;20043;-27
2023/02/15 09:56:31;;;;;;;38.55;22.55;;;;;;;-143.48;49.38;118439.88;5054489;28;20115;-28
2023/02/15 09:59:04;;;;;;;39.05;23.48;;;;;;;-143.48;48.21;118439.88;5054509;28;20021;-28
2023/02/15 10:01:41;;;;;;;34.95;22.58;;;;;;;-143.48;46.76;118439.88;5054973;28;20035;-28
2023/02/15 10:05:03;;;;;;;33.78;22.80;;;;;;;-143.48;46.29;118439.88;5054004;28;20479;-28
2023/02/15 10:07:36;;;;;;;32.13;21.98;;;;;;;-143.48;45.81;118439.88;5032337;28;20029;-27
2023/02/15 10:10:34;;;;;;;34.70;22.10;;;;;;;-143.48;45.70;118439.88;5032194;28;20469;-28
2023/02/15 10:13:08;;;;;;;32.92;21.77;;;;;;;-143.48;45.62;118439.88;5047743;28;20487;-29
2023/02/15 10:15:55;;;;;;;33.03;22.58;;;;;;;-143.48;43.72;118439.88;5052285;28;20239;-28
2023/02/15 10:18:40;;;;;;;31.88;21.88;;;;;;;-143.48;43.17;118439.88;5052590;28;20025;-29
2023/02/15 10:21:24;;;;;;;37.42;21.73;;;;;;;-143.48;40.81;118439.88;5054074;28;20025;-29
2023/02/15 10:24:01;;;;;;;35.63;21.67;;;;;;;-143.48;40.01;118439.88;5053864;28;20064;-29
2023/02/15 10:26:37;;;;;;;33.20;20.90;;;;;;;-143.48;39.93;118439.88;5054206;28;20036;-29
2023/02/15 10:29:05;;;;;;;29.35;21.35;;;;;;;-143.48;38.84;118439.88;5054209;28;20045;-29
2023/02/15 10:31:45;;;;;;;33.90;21.73;;;;;;;-143.48;39.32;118439.88;5054213;28;20028;-29
2023/02/15 10:34:18;;;;;;;30.23;20.08;;;;;;;-143.48;38.38;118439.88;5054294;28;20047;-29
2023/02/15 10:37:12;;;;;;;32.53;21.08;;;;;;;-143.48;41.86;118439.88;5053214;28;20035;-29
2023/02/15 10:39:46;;;;;;;33.70;21.33;;;;;;;-143.48;40.24;118439.88;5053521;28;20090;-29
2023/02/15 10:42:28;;;;;;;36.40;21.33;;;;;;;-143.48;39.09;118439.88;5054182;28;20024;-29
2023/02/15 10:45:05;;;;;;;37.22;21.38;;;;;;;-143.48;39.29;118439.88;5053097;28;20079;-29
2023/02/15 10:47:54;;;;;;;34.10;21.67;;;;;;;-143.48;39.09;118439.88;5052527;28;20048;-29
2023/02/15 10:50:49;;;;;;;34.92;22.23;;;;;;;-143.48;38.66;118439.88;5052090;28;20041;-29
2023/02/15 10:53:31;;;;;;;32.33;20.95;;;;;;;-143.48;40.27;118439.88;5052513;28;20032;-29
2023/02/15 10:56:02;;;;;;;36.38;21.52;;;;;;;-143.48;40.62;118439.88;5052569;28;20025;-29
2023/02/15 10:58:44;;;;;;;33.33;21.08;;;;;;;-143.48;42.78;118439.88;5050746;28;20063;-29
2023/02/15 11:01:44;;;;;;;35.13;21.13;;;;;;;-143.48;42.96;118439.88;5052552;28;20037;-29
2023/02/15 11:04:39;;;;;;;44.80;22.30;;;;;;;-143.48;45.10;118439.88;5049512;28;20057;-29
2023/02/15 11:07:28;;;;;;;42.15;22.35;;;;;;;-143.48;42.86;118439.88;5053298;28;20032;-29
2023/02/15 11:10:07;;;;;;;43.80;22.55;;;;;;;-143.48;43.52;118439.88;5053096;28;20037;-29
2023/02/15 11:12:33;;;;;;;39.28;22.17;;;;;;;-143.48;43.46;118439.88;5053363;28;20542;-29
2023/02/15 11:15:25;;;;;;;39.50;22.13;;;;;;;-143.48;44.84;118439.88;5053576;28;20021;-29
2023/02/15 11:18:25;;;;;;;40.97;23.20;;;;;;;-143.48;46.39;118439.88;5050114;28;20048;-29
2023/02/15 11:21:11;;;;;;;45.53;23.75;;;;;;;-143.48;46.84;118439.88;5046162;28;20049;-29
2023/02/15 11:23:44;;;;;;;42.80;23.90;;;;;;;-143.48;46.70;118439.88;5053395;28;20040;-29
2023/02/15 11:26:19;;;;;;;44.10;23.80;;;;;;;-143.48;46.84;118439.88;5053910;28;20048;-29
2023/02/15 11:29:07;;;;;;;48.00;24.52;;;;;;;-143.48;46.49;118439.88;5053264;28;20463;-29